Time;durP1;ratioP1;P1;durP2;ratioP2;P2;SDS_P1;SDS_P2;PMS_P1;PMS_P2;Temp;Humidity;BMP_temperature;BMP_pressure;BME280_temperature;BME280_humidity;BME280_pressure;Samples;Min_cycle;Max_cycle;Signal;HPM_P1;HPM_P2
2021/04/10 00:01:09;;;;;;;3.70;3.30;;;;;;;8.09;47.67;99321.50;5001625;28;20245;-83
2021/04/10 00:04:20;;;;;;;4.93;3.60;;;;;;;8.07;47.85;99328.94;5017620;28;20223;-84
2021/04/10 00:07:18;;;;;;;4.53;3.20;;;;;;;8.09;47.77;99329.53;5028527;28;20253;-84
2021/04/10 00:10:20;;;;;;;5.43;3.20;;;;;;;7.99;47.69;99319.28;5030889;28;20186;-84
2021/04/10 00:13:26;;;;;;;5.37;3.60;;;;;;;7.95;47.72;99318.06;5013174;28;20230;-83
2021/04/10 00:16:44;;;;;;;4.70;3.67;;;;;;;7.90;48.02;99313.38;5016731;28;20247;-83
2021/04/10 00:20:03;;;;;;;4.27;3.23;;;;;;;7.74;49.03;99321.84;5013876;28;20233;-84
2021/04/10 00:23:03;;;;;;;6.93;3.87;;;;;;;7.53;49.13;99314.88;4977255;28;20235;-85
2021/04/10 00:26:22;;;;;;;5.60;3.50;;;;;;;7.18;49.19;99294.84;5008718;28;20212;-83
2021/04/10 00:29:29;;;;;;;4.27;3.40;;;;;;;7.20;50.05;99310.59;5034513;28;20227;-83
2021/04/10 00:32:30;;;;;;;4.27;3.33;;;;;;;6.94;51.26;99300.78;5018873;28;20261;-84
2021/04/10 00:35:47;;;;;;;3.63;3.10;;;;;;;6.89;51.77;99317.38;5009415;28;20286;-84
2021/04/10 00:38:59;;;;;;;5.13;3.73;;;;;;;6.70;53.06;99320.81;5007414;28;20222;-84
2021/04/10 00:42:00;;;;;;;4.50;3.57;;;;;;;6.57;53.29;99320.81;4994686;28;20231;-83
2021/04/10 00:45:29;;;;;;;5.47;3.13;;;;;;;6.41;53.82;99307.84;5016547;28;20216;-84
2021/04/10 00:48:46;;;;;;;4.93;3.20;;;;;;;6.32;55.06;99314.38;5017480;28;20236;-83
2021/04/10 00:52:00;;;;;;;5.40;3.40;;;;;;;6.17;54.49;99299.38;5001987;28;20233;-84
2021/04/10 00:54:56;;;;;;;4.00;3.27;;;;;;;6.14;54.70;99315.75;5019020;28;20318;-82
2021/04/10 00:58:29;;;;;;;4.50;3.20;;;;;;;5.89;56.19;99298.66;4997695;28;20232;-85
2021/04/10 01:01:38;;;;;;;6.67;3.73;;;;;;;5.86;56.43;99304.34;5008165;28;20245;-85
2021/04/10 01:04:41;;;;;;;5.40;3.60;;;;;;;5.81;55.64;99311.25;5013674;28;20306;-86
2021/04/10 01:07:51;;;;;;;4.40;3.53;;;;;;;5.60;55.78;99283.72;5008515;28;20311;-85
2021/04/10 01:11:04;;;;;;;5.87;3.30;;;;;;;5.49;56.56;99292.28;5014233;28;20219;-86
2021/04/10 01:14:38;;;;;;;5.73;3.80;;;;;;;5.48;57.59;99309.22;5017477;28;20295;-86
2021/04/10 01:22:53;;;;;;;3.57;3.23;;;;;;;5.17;59.36;99298.19;5050011;28;20313;-85
2021/04/10 01:26:36;;;;;;;4.43;3.40;;;;;;;5.01;60.39;99309.06;4972048;29;20767;-86
2021/04/10 01:30:05;;;;;;;5.87;3.83;;;;;;;4.82;61.18;99303.41;5048615;28;20237;-85
2021/04/10 01:33:06;;;;;;;7.17;3.80;;;;;;;4.74;61.24;99308.03;5018120;28;20229;-84
2021/04/10 01:36:19;;;;;;;6.43;3.90;;;;;;;4.63;61.46;99301.38;5016127;28;20227;-84
2021/04/10 01:39:59;;;;;;;4.57;3.90;;;;;;;4.50;62.28;99303.06;5035640;28;20246;-84
2021/04/10 01:43:46;;;;;;;6.50;3.40;;;;;;;4.36;62.28;99308.25;5032710;28;20295;-84
2021/04/10 01:47:34;;;;;;;7.97;3.50;;;;;;;4.15;62.51;99284.34;5031471;28;20191;-84
2021/04/10 01:51:35;;;;;;;6.13;3.67;;;;;;;4.17;62.67;99302.72;5020632;28;20226;-84
2021/04/10 01:55:14;;;;;;;4.50;3.60;;;;;;;3.92;62.56;99296.91;4990377;28;20229;-84
2021/04/10 01:59:10;;;;;;;5.43;3.97;;;;;;;3.73;63.14;99295.66;5035390;28;20227;-84
2021/04/10 02:02:52;;;;;;;9.33;3.87;;;;;;;3.63;64.19;99303.06;4991965;28;20219;-83
2021/04/10 02:06:40;;;;;;;7.63;4.00;;;;;;;3.58;63.99;99294.84;4993377;28;20226;-84
2021/04/10 02:10:42;;;;;;;4.43;3.57;;;;;;;3.48;64.23;99305.72;4959009;28;20302;-84
2021/04/10 02:14:36;;;;;;;4.50;3.93;;;;;;;3.35;64.36;99296.75;4985675;28;20228;-84
2021/04/10 02:18:17;;;;;;;6.00;3.90;;;;;;;3.33;64.15;99307.50;5015144;23;20219;-84
2021/04/10 02:21:38;;;;;;;5.83;3.57;;;;;;;3.38;64.39;99306.97;4994503;28;20270;-84
2021/04/10 02:25:32;;;;;;;6.00;3.93;;;;;;;3.19;65.08;99302.19;5029957;28;20230;-84
2021/04/10 02:29:40;;;;;;;4.97;3.87;;;;;;;2.95;65.52;99290.84;5020305;28;20234;-85
2021/04/10 02:33:35;;;;;;;4.23;3.50;;;;;;;3.00;65.69;99309.66;5051532;23;20233;-83
2021/04/10 02:36:58;;;;;;;6.13;3.87;;;;;;;2.98;65.50;99310.84;5004815;28;20671;-84
2021/04/10 02:44:09;;;;;;;6.03;3.83;;;;;;;2.94;66.42;99323.56;4990704;28;20216;-84
2021/04/10 02:47:14;;;;;;;4.77;4.00;;;;;;;2.81;66.69;99314.59;4988140;28;20252;-84
2021/04/10 02:50:58;;;;;;;4.93;3.70;;;;;;;2.80;66.62;99328.84;4972641;28;20236;-84
2021/04/10 02:54:32;;;;;;;5.20;4.03;;;;;;;2.65;66.55;99312.91;4961686;29;20232;-84
2021/04/10 02:57:51;;;;;;;6.43;4.30;;;;;;;2.66;66.64;99327.78;4971904;29;20224;-84
2021/04/10 03:01:22;;;;;;;4.63;3.70;;;;;;;2.53;67.23;99309.84;5029785;28;20222;-84
2021/04/10 03:05:09;;;;;;;6.33;4.13;;;;;;;2.58;67.41;99326.00;5015999;28;20241;-85
2021/04/10 03:08:32;;;;;;;8.43;4.13;;;;;;;2.54;67.80;99322.06;5030483;28;20218;-84
2021/04/10 03:12:14;;;;;;;5.33;3.87;;;;;;;2.47;67.66;99325.63;5009274;28;20195;-83
2021/04/10 03:15:39;;;;;;;5.97;3.80;;;;;;;2.36;68.17;99332.13;4973336;28;20244;-84
2021/04/10 03:19:15;;;;;;;6.07;3.47;;;;;;;2.33;67.69;99334.28;4985892;28;20221;-84
2021/04/10 03:22:28;;;;;;;6.13;4.40;;;;;;;2.07;67.86;99316.06;4997627;23;20302;-84
2021/04/10 03:26:04;;;;;;;4.70;3.70;;;;;;;2.03;68.10;99312.97;4984334;28;20227;-84
2021/04/10 03:29:34;;;;;;;4.60;3.50;;;;;;;2.18;68.46;99342.13;4961186;28;20310;-84
2021/04/10 03:33:03;;;;;;;5.60;3.53;;;;;;;2.01;68.53;99312.28;4985940;28;20227;-84
2021/04/10 03:36:57;;;;;;;5.03;3.80;;;;;;;2.13;68.11;99339.19;5012799;28;20242;-84
2021/04/10 03:40:22;;;;;;;5.90;3.67;;;;;;;1.99;67.95;99343.38;5019311;23;20362;-84
2021/04/10 03:43:32;;;;;;;4.33;3.43;;;;;;;1.97;68.14;99352.44;5033897;28;20187;-84
2021/04/10 03:46:52;;;;;;;6.27;4.43;;;;;;;1.85;68.79;99340.63;5032807;28;20226;-85
2021/04/10 03:49:52;;;;;;;7.33;4.00;;;;;;;1.74;69.64;99333.88;5009766;28;20217;-84
2021/04/10 03:53:18;;;;;;;4.53;3.87;;;;;;;1.80;69.24;99353.50;5000729;28;20240;-84
2021/04/10 03:56:26;;;;;;;5.60;3.80;;;;;;;1.77;69.57;99373.19;5031288;28;20222;-83
2021/04/10 04:00:10;;;;;;;4.33;3.80;;;;;;;1.73;70.12;99375.31;5011682;28;20638;-84
2021/04/10 04:03:19;;;;;;;6.43;3.60;;;;;;;1.64;70.52;99368.41;4991260;28;20581;-84
2021/04/10 04:06:22;;;;;;;4.80;3.57;;;;;;;1.70;70.19;99375.66;4992347;28;20306;-84
2021/04/10 04:09:28;;;;;;;6.70;4.20;;;;;;;1.70;69.98;99374.84;4966099;23;20254;-83
2021/04/10 04:13:03;;;;;;;4.20;3.60;;;;;;;1.58;69.85;99363.81;5024462;28;20218;-84
2021/04/10 04:16:40;;;;;;;4.57;3.80;;;;;;;1.59;71.03;99375.19;5033575;28;20225;-84
2021/04/10 04:19:58;;;;;;;5.67;4.00;;;;;;;1.55;70.53;99376.50;5048018;28;20238;-84
2021/04/10 04:23:26;;;;;;;6.93;3.70;;;;;;;1.54;70.56;99369.59;5041634;28;20237;-83
2021/04/10 04:27:04;;;;;;;3.80;3.40;;;;;;;1.62;70.56;99383.59;5031808;28;20217;-84
2021/04/10 04:30:09;;;;;;;4.97;3.53;;;;;;;1.57;70.32;99372.72;5020717;28;20215;-84
2021/04/10 04:33:16;;;;;;;5.33;3.80;;;;;;;1.73;70.21;99387.69;5037705;28;20221;-84
2021/04/10 04:36:49;;;;;;;4.93;3.80;;;;;;;1.77;70.71;99381.09;5014629;23;20230;-84
2021/04/10 04:40:15;;;;;;;4.37;3.20;;;;;;;1.84;70.97;99394.44;4997676;28;20286;-83
2021/04/10 04:43:38;;;;;;;4.20;3.37;;;;;;;1.80;70.90;99386.03;5022623;23;20304;-84
2021/04/10 04:46:46;;;;;;;8.00;3.90;;;;;;;1.96;70.50;99401.81;5051391;28;20250;-83
2021/04/10 04:50:29;;;;;;;6.27;3.83;;;;;;;2.12;70.18;99407.06;5037732;28;20225;-83
2021/04/10 04:53:49;;;;;;;14.70;8.57;;;;;;;2.29;70.40;99402.53;5050094;23;20234;-84
2021/04/10 04:57:31;;;;;;;5.37;4.07;;;;;;;2.45;69.97;99407.75;5008671;28;20202;-83
2021/04/10 05:03:35;;;;;;;3.70;3.23;;;;;;;2.71;69.50;99411.91;4954022;29;20212;-82
2021/04/10 05:06:57;;;;;;;5.03;4.07;;;;;;;2.97;69.02;99425.63;5036057;23;20236;-83
2021/04/10 05:10:29;;;;;;;4.53;3.60;;;;;;;3.08;68.92;99411.97;5056772;28;20193;-83
2021/04/10 05:13:37;;;;;;;4.57;3.60;;;;;;;3.34;68.29;99428.31;5039696;28;20510;-83
2021/04/10 05:17:15;;;;;;;7.80;4.10;;;;;;;3.66;67.22;99436.97;5071576;23;20297;-83
2021/04/10 05:20:29;;;;;;;5.80;3.47;;;;;;;3.83;66.87;99436.63;5058628;28;20226;-83
2021/04/10 05:23:41;;;;;;;5.87;3.73;;;;;;;4.14;65.68;99440.97;5075969;28;20283;-83
2021/04/10 05:26:37;;;;;;;5.87;3.90;;;;;;;4.23;65.04;99430.09;5058175;23;20267;-84
2021/04/10 05:29:39;;;;;;;6.77;3.37;;;;;;;4.61;63.93;99449.34;5069228;28;20260;-83
2021/04/10 05:36:33;;;;;;;5.00;2.70;;;;;;;4.95;62.12;99437.25;5053374;28;20163;-84
2021/04/10 05:39:33;;;;;;;3.30;2.93;;;;;;;5.36;60.90;99466.72;5037953;28;20214;-84
2021/04/10 05:42:57;;;;;;;5.17;3.23;;;;;;;5.45;60.85;99454.94;5041813;23;20301;-83
2021/04/10 05:46:19;;;;;;;4.63;3.10;;;;;;;5.83;59.75;99472.22;5053501;28;20269;-84
2021/04/10 05:49:25;;;;;;;7.17;2.83;;;;;;;6.00;59.18;99462.97;5033099;28;20234;-83
2021/04/10 05:52:50;;;;;;;4.67;2.90;;;;;;;6.20;58.91;99463.13;5055710;23;20222;-84
2021/04/10 05:56:57;;;;;;;4.20;2.80;;;;;;;6.25;58.60;99443.91;5045620;23;20236;-83
2021/04/10 06:00:27;;;;;;;4.47;3.23;;;;;;;6.46;58.06;99455.25;5052688;28;20205;-84
2021/04/10 06:03:24;;;;;;;7.10;3.20;;;;;;;6.55;57.26;99462.06;5048454;28;20237;-83
2021/04/10 06:06:54;;;;;;;4.57;3.07;;;;;;;6.84;56.94;99482.25;5028723;28;20234;-83
2021/04/10 06:10:35;;;;;;;3.83;2.80;;;;;;;6.82;56.93;99475.47;5049626;23;20230;-85
2021/04/10 06:13:40;;;;;;;4.20;2.90;;;;;;;7.08;56.35;99475.59;5030877;28;20286;-84
2021/04/10 06:17:01;;;;;;;6.87;3.27;;;;;;;7.19;55.50;99463.50;5023321;28;20214;-84
2021/04/10 06:20:18;;;;;;;5.20;3.00;;;;;;;7.27;55.97;99472.16;5049992;28;20206;-85
2021/04/10 06:23:23;;;;;;;4.60;2.50;;;;;;;7.37;55.73;99471.75;5035420;28;20197;-85
2021/04/10 06:26:24;;;;;;;4.27;3.30;;;;;;;7.48;55.56;99468.47;5047110;28;20222;-84
2021/04/10 06:29:01;;;;;;;7.63;3.90;;;;;;;7.56;54.17;99456.81;5045435;28;20621;-85
2021/04/10 06:31:42;;;;;;;4.03;2.97;;;;;;;7.73;54.57;99469.53;5045636;28;20229;-85
2021/04/10 06:34:35;;;;;;;6.90;3.00;;;;;;;7.90;53.95;99483.25;5010458;28;20245;-85
2021/04/10 06:37:03;;;;;;;4.70;3.70;;;;;;;8.01;53.63;99471.97;5010631;28;20245;-85
2021/04/10 06:39:32;;;;;;;6.53;3.50;;;;;;;8.13;53.03;99464.16;4990402;28;20218;-85
2021/04/10 06:42:11;;;;;;;6.07;3.27;;;;;;;8.26;53.15;99472.13;4993418;28;20234;-84
2021/04/10 06:44:56;;;;;;;7.33;3.03;;;;;;;8.26;53.19;99469.47;5010582;28;20267;-85
2021/04/10 06:47:32;;;;;;;5.87;3.20;;;;;;;8.49;52.57;99490.41;5005515;28;20290;-84
2021/04/10 06:50:07;;;;;;;7.73;3.10;;;;;;;8.62;52.60;99485.03;5030756;23;20305;-84
2021/04/10 06:52:45;;;;;;;9.10;5.07;;;;;;;8.77;52.43;99486.41;5025392;28;20234;-85
2021/04/10 06:55:20;;;;;;;13.13;8.37;;;;;;;9.05;51.88;99495.97;5047507;28;20226;-85
2021/04/10 06:58:09;;;;;;;6.33;3.83;;;;;;;9.04;51.29;99478.28;5020825;28;20222;-85
2021/04/10 07:00:49;;;;;;;5.00;3.73;;;;;;;9.23;50.09;99485.38;5006860;28;20252;-85
2021/04/10 07:06:42;;;;;;;6.27;3.30;;;;;;;9.35;49.92;99490.84;4986043;28;20343;-84
2021/04/10 07:09:19;;;;;;;8.30;5.27;;;;;;;9.30;49.93;99472.78;4987850;23;20236;-85
2021/04/10 07:12:06;;;;;;;5.47;3.97;;;;;;;9.55;50.46;99502.25;4979307;28;20221;-85
2021/04/10 07:15:15;;;;;;;4.63;3.63;;;;;;;9.66;49.86;99499.69;4977986;28;20246;-86
2021/04/10 07:18:19;;;;;;;4.97;3.60;;;;;;;9.73;48.47;99505.00;5006503;28;20584;-82
2021/04/10 07:21:30;;;;;;;5.23;3.57;;;;;;;9.72;48.90;99501.50;5058290;23;20543;-86
2021/04/10 07:24:41;;;;;;;5.73;3.63;;;;;;;9.93;48.78;99507.53;5000783;28;20216;-85
2021/04/10 07:27:29;;;;;;;5.80;3.60;;;;;;;10.01;48.79;99492.03;5010702;28;20218;-85
2021/04/10 07:31:05;;;;;;;4.93;3.93;;;;;;;10.21;48.29;99507.13;5050359;23;20285;-83
2021/04/10 07:34:16;;;;;;;6.73;3.80;;;;;;;10.15;48.81;99498.06;5015707;28;20242;-82
2021/04/10 07:37:11;;;;;;;5.40;4.70;;;;;;;10.38;48.06;99490.25;5025958;28;20226;-83
2021/04/10 07:40:07;;;;;;;4.50;4.10;;;;;;;10.54;48.08;99500.38;5027723;28;20221;-83
2021/04/10 07:43:25;;;;;;;6.90;4.63;;;;;;;10.84;47.00;99515.72;5019447;28;20282;-83
2021/04/10 07:46:33;;;;;;;5.60;3.93;;;;;;;10.69;47.22;99513.41;5029367;28;20211;-83
2021/04/10 07:49:45;;;;;;;4.87;4.30;;;;;;;10.93;47.05;99512.53;5029566;28;20261;-83
2021/04/10 07:53:25;;;;;;;9.43;6.73;;;;;;;11.29;47.45;99518.91;5034664;28;20226;-81
2021/04/10 07:56:40;;;;;;;6.97;6.23;;;;;;;11.44;46.82;99497.81;5024798;28;20219;-81
2021/04/10 07:59:25;;;;;;;8.67;5.83;;;;;;;11.70;45.44;99507.38;4999984;28;20195;-81
2021/04/10 08:02:27;;;;;;;10.43;8.20;;;;;;;11.78;45.59;99501.69;5024301;23;20226;-81
2021/04/10 08:05:30;;;;;;;8.60;6.93;;;;;;;11.81;45.99;99511.94;5034160;28;20206;-81
2021/04/10 08:08:57;;;;;;;12.73;9.87;;;;;;;12.06;45.60;99525.19;5032005;28;20291;-82
2021/04/10 08:12:12;;;;;;;5.27;4.53;;;;;;;12.14;44.81;99525.66;5034036;28;20223;-81
2021/04/10 08:15:12;;;;;;;4.90;3.93;;;;;;;12.13;44.96;99520.56;5001323;28;20243;-81
2021/04/10 08:17:57;;;;;;;10.93;4.90;;;;;;;12.28;44.96;99518.19;5018388;28;20281;-81
2021/04/10 08:21:24;;;;;;;7.47;5.73;;;;;;;12.49;44.34;99511.44;5034259;28;20229;-81
2021/04/10 08:24:24;;;;;;;8.83;5.63;;;;;;;12.68;44.12;99521.00;5032516;28;20230;-81
2021/04/10 08:27:29;;;;;;;9.00;5.43;;;;;;;12.79;43.00;99512.91;5032625;28;20202;-82
2021/04/10 08:30:35;;;;;;;7.60;5.43;;;;;;;12.99;44.62;99517.91;5032558;28;20281;-81
2021/04/10 08:33:36;;;;;;;9.60;8.20;;;;;;;13.06;44.78;99496.25;5050402;23;20276;-81
2021/04/10 08:36:31;;;;;;;8.07;5.37;;;;;;;13.43;43.24;99523.66;5008779;28;20280;-82
2021/04/10 08:39:38;;;;;;;10.53;7.97;;;;;;;13.62;43.62;99525.88;5025600;28;20230;-82
2021/04/10 08:42:26;;;;;;;6.23;4.83;;;;;;;13.68;42.89;99518.72;5013298;28;20565;-81
2021/04/10 08:45:19;;;;;;;6.27;4.70;;;;;;;13.88;42.47;99523.63;5005426;28;20286;-82
2021/04/10 08:48:40;;;;;;;13.43;7.27;;;;;;;14.05;42.12;99519.06;5082490;23;20246;-81
2021/04/10 08:52:31;;;;;;;5.60;4.20;;;;;;;14.26;40.70;99512.13;5043717;28;20224;-82
2021/04/10 08:59:20;;;;;;;7.37;5.90;;;;;;;14.76;38.94;99499.41;5036824;28;20232;-82
2021/04/10 09:02:31;;;;;;;7.60;6.37;;;;;;;15.01;38.89;99517.81;5001825;28;20228;-85
2021/04/10 09:05:54;;;;;;;6.47;4.70;;;;;;;15.08;39.96;99515.72;5009459;28;20242;-83
2021/04/10 09:08:32;;;;;;;4.90;4.17;;;;;;;15.28;37.27;99521.38;5013658;28;21036;-89
2021/04/10 09:11:20;;;;;;;5.87;4.33;;;;;;;15.29;38.19;99506.00;5003197;28;20575;-85
2021/04/10 09:14:04;;;;;;;6.50;4.83;;;;;;;15.51;37.94;99509.50;4984042;28;20235;-85
2021/04/10 09:16:50;;;;;;;6.63;5.93;;;;;;;15.66;37.24;99517.75;5015752;28;20720;-89
2021/04/10 09:19:28;;;;;;;6.00;5.13;;;;;;;15.79;36.59;99509.25;5003196;28;20247;-88
2021/04/10 09:22:03;;;;;;;5.70;4.83;;;;;;;15.67;37.13;99516.69;4986802;28;20227;-84
2021/04/10 09:24:51;;;;;;;5.63;3.70;;;;;;;15.84;36.56;99519.28;5017852;28;20233;-89
2021/04/10 09:27:35;;;;;;;8.50;5.43;;;;;;;15.98;36.87;99503.44;5001943;28;20223;-87
2021/04/10 09:30:42;;;;;;;6.90;4.43;;;;;;;15.91;37.27;99502.88;4998533;28;20229;-82
2021/04/10 09:33:36;;;;;;;6.20;4.83;;;;;;;16.09;37.04;99510.59;4994876;28;20229;-87
2021/04/10 09:36:49;;;;;;;5.70;3.30;;;;;;;16.11;37.02;99509.22;4986482;28;20219;-84
2021/04/10 09:45:29;;;;;;;6.47;5.43;;;;;;;16.52;35.93;99488.69;5018182;28;20219;-89
2021/04/10 09:48:18;;;;;;;5.63;4.30;;;;;;;16.76;35.30;99499.13;5026393;28;20229;-89
2021/04/10 09:51:14;;;;;;;8.57;5.63;;;;;;;16.98;35.48;99491.69;5007903;28;20236;-81
2021/04/10 09:54:29;;;;;;;6.53;5.40;;;;;;;16.98;35.91;99487.06;5007070;28;20227;-88
2021/04/10 09:57:30;;;;;;;7.37;4.97;;;;;;;16.97;36.30;99477.34;5019537;28;20221;-88
2021/04/10 10:00:25;;;;;;;6.10;5.50;;;;;;;17.12;35.29;99479.28;4969925;28;20229;-88
2021/04/10 10:03:17;;;;;;;6.93;4.50;;;;;;;17.47;34.90;99483.97;5005727;28;20305;-81
2021/04/10 10:06:24;;;;;;;5.20;3.83;;;;;;;17.59;34.59;99490.78;5000977;28;20225;-82
2021/04/10 10:09:34;;;;;;;5.87;4.43;;;;;;;17.43;34.04;99483.69;5019410;28;20638;-84
2021/04/10 10:12:33;;;;;;;5.90;4.33;;;;;;;17.60;34.08;99489.72;5000180;28;20519;-83
2021/04/10 10:15:30;;;;;;;7.77;5.20;;;;;;;17.62;34.58;99475.91;4989321;28;20233;-85
2021/04/10 10:18:25;;;;;;;6.33;3.80;;;;;;;17.80;34.19;99475.38;4982951;28;20622;-85
2021/04/10 10:21:27;;;;;;;5.57;3.80;;;;;;;17.77;33.91;99469.69;4985116;28;20219;-86
2021/04/10 10:24:27;;;;;;;8.63;4.33;;;;;;;17.83;33.64;99455.03;4999094;28;20242;-85
2021/04/10 10:27:30;;;;;;;7.40;6.13;;;;;;;17.94;33.07;99464.81;5000384;28;20223;-86
2021/04/10 10:30:35;;;;;;;8.57;6.97;;;;;;;18.06;32.42;99469.97;4996812;28;20519;-88
2021/04/10 10:33:18;;;;;;;7.23;5.27;;;;;;;18.09;33.42;99461.28;4985361;28;20234;-88
2021/04/10 10:36:07;;;;;;;6.30;5.70;;;;;;;18.45;31.94;99458.22;4990450;28;20222;-82
2021/04/10 10:38:49;;;;;;;7.90;7.20;;;;;;;18.53;30.88;99448.75;5022231;28;20256;-84
2021/04/10 10:41:43;;;;;;;6.63;4.00;;;;;;;18.54;32.54;99433.28;5006317;28;20230;-87
2021/04/10 10:44:36;;;;;;;4.90;4.40;;;;;;;18.70;31.77;99437.59;4995961;28;20229;-83
2021/04/10 10:47:17;;;;;;;5.87;3.90;;;;;;;18.82;31.15;99438.88;4992643;28;20233;-87
2021/04/10 10:49:55;;;;;;;5.20;4.70;;;;;;;18.99;31.14;99441.22;5013902;28;20582;-82
2021/04/10 10:52:45;;;;;;;5.20;4.30;;;;;;;19.00;30.04;99442.88;4990672;28;20613;-84
2021/04/10 10:56:12;;;;;;;7.90;5.40;;;;;;;19.22;29.40;99440.56;5016859;28;20218;-84
2021/04/10 10:59:03;;;;;;;5.07;3.70;;;;;;;19.13;30.50;99428.66;5022456;28;20518;-86
2021/04/10 11:01:53;;;;;;;6.07;4.17;;;;;;;19.20;30.83;99437.34;5022851;28;20621;-88
2021/04/10 11:04:45;;;;;;;6.00;5.40;;;;;;;19.30;30.69;99434.56;5007470;28;20336;-82
2021/04/10 11:07:32;;;;;;;5.70;4.30;;;;;;;19.14;29.94;99433.00;5005131;28;20261;-85
2021/04/10 11:10:27;;;;;;;6.30;3.33;;;;;;;19.02;29.98;99407.31;5016811;28;20227;-87
2021/04/10 11:13:11;;;;;;;5.43;4.47;;;;;;;19.16;30.67;99417.25;4996953;28;20289;-81
2021/04/10 11:15:58;;;;;;;10.13;4.20;;;;;;;19.15;30.21;99412.09;4996688;28;20222;-85
2021/04/10 11:18:37;;;;;;;4.20;3.70;;;;;;;19.33;30.88;99417.69;4998027;28;20222;-84
2021/04/10 11:21:32;;;;;;;6.53;5.20;;;;;;;19.44;30.44;99413.03;4992918;28;20223;-85
2021/04/10 11:24:13;;;;;;;6.07;3.70;;;;;;;19.36;30.56;99405.47;5012488;28;20221;-85
2021/04/10 11:26:57;;;;;;;5.30;4.00;;;;;;;19.40;30.77;99422.00;4998045;28;20227;-86
2021/04/10 11:29:34;;;;;;;4.20;3.80;;;;;;;19.32;30.03;99416.06;5009814;28;20214;-85
2021/04/10 11:32:23;;;;;;;5.00;3.30;;;;;;;19.46;29.02;99418.16;4993980;28;20679;-87
2021/04/10 11:35:05;;;;;;;5.70;3.67;;;;;;;19.50;28.67;99411.91;5023619;28;20222;-86
2021/04/10 11:38:18;;;;;;;4.03;3.13;;;;;;;19.62;28.14;99412.34;4997306;28;20569;-83
2021/04/10 11:41:02;;;;;;;7.40;3.93;;;;;;;19.67;28.85;99404.16;5011680;28;20251;-84
2021/04/10 11:44:04;;;;;;;4.20;3.30;;;;;;;19.57;28.00;99403.44;5010912;28;20765;-87
2021/04/10 11:47:14;;;;;;;4.93;3.80;;;;;;;19.77;28.52;99404.09;4994634;28;20653;-83
2021/04/10 11:50:25;;;;;;;6.33;4.80;;;;;;;19.98;28.97;99396.53;5006474;28;20224;-86
2021/04/10 11:53:31;;;;;;;5.77;3.27;;;;;;;20.14;28.01;99392.59;5000743;28;20306;-83
2021/04/10 11:56:34;;;;;;;6.23;3.50;;;;;;;20.17;27.74;99400.16;4996206;28;20306;-87
2021/04/10 11:59:08;;;;;;;5.80;3.00;;;;;;;20.14;27.86;99368.09;5015635;28;20227;-82
2021/04/10 12:02:00;;;;;;;4.93;4.00;;;;;;;20.18;27.80;99388.19;5000476;28;20253;-82
2021/04/10 12:04:42;;;;;;;6.87;4.23;;;;;;;20.42;26.35;99379.25;5009840;28;20566;-87
2021/04/10 12:07:17;;;;;;;9.10;4.93;;;;;;;20.17;27.17;99372.97;5015809;28;20226;-82
2021/04/10 12:09:50;;;;;;;3.43;2.80;;;;;;;20.39;26.26;99368.97;5013828;28;20257;-86
2021/04/10 12:12:28;;;;;;;7.53;3.27;;;;;;;20.53;26.87;99367.16;5001053;28;20234;-85
2021/04/10 12:15:14;;;;;;;4.10;3.10;;;;;;;20.55;26.52;99365.75;5001067;28;20223;-82
2021/04/10 12:17:58;;;;;;;7.17;3.60;;;;;;;20.68;27.35;99372.38;5001036;28;20223;-82
2021/04/10 12:20:39;;;;;;;6.70;4.87;;;;;;;20.89;26.62;99368.31;4993512;28;20322;-86
2021/04/10 12:23:18;;;;;;;7.50;3.10;;;;;;;20.87;26.39;99365.06;4980871;28;20255;-83
2021/04/10 12:25:55;;;;;;;6.33;4.50;;;;;;;20.97;26.67;99348.59;4989586;28;20521;-86
2021/04/10 12:28:32;;;;;;;5.80;3.13;;;;;;;21.10;27.15;99347.03;4999290;28;20235;-84
2021/04/10 12:31:12;;;;;;;6.37;3.23;;;;;;;21.15;27.09;99346.16;4990134;28;20232;-86
2021/04/10 12:33:56;;;;;;;7.53;4.00;;;;;;;21.21;27.09;99348.53;4981180;28;20252;-86
2021/04/10 12:36:39;;;;;;;4.90;3.53;;;;;;;21.36;26.40;99342.03;4994351;28;20235;-84
2021/04/10 12:39:24;;;;;;;4.60;3.23;;;;;;;21.16;26.76;99326.81;5015659;28;20227;-86
2021/04/10 12:42:07;;;;;;;7.20;5.10;;;;;;;21.33;26.95;99337.16;5013372;28;20233;-87
2021/04/10 12:44:43;;;;;;;6.73;3.70;;;;;;;21.45;27.20;99329.34;5016044;28;20928;-83
2021/04/10 12:47:29;;;;;;;6.20;3.20;;;;;;;21.48;26.56;99326.84;4998344;28;20234;-85
2021/04/10 12:50:19;;;;;;;5.97;3.07;;;;;;;21.65;25.96;99325.47;4979607;28;20601;-83
2021/04/10 12:53:08;;;;;;;6.30;4.37;;;;;;;21.93;25.24;99317.06;4993773;28;20593;-87
2021/04/10 12:56:00;;;;;;;13.67;5.10;;;;;;;22.14;25.54;99300.31;5005706;28;20225;-84
2021/04/10 12:58:49;;;;;;;5.40;3.33;;;;;;;22.14;25.20;99297.56;5004345;28;20233;-84
2021/04/10 13:01:43;;;;;;;5.20;3.37;;;;;;;22.11;25.38;99300.91;5001837;28;20221;-82
2021/04/10 13:04:41;;;;;;;5.60;2.83;;;;;;;22.30;24.79;99299.69;4985037;28;20234;-85
2021/04/10 13:07:42;;;;;;;4.70;3.80;;;;;;;22.44;24.08;99285.25;4986386;28;20413;-84
2021/04/10 13:10:42;;;;;;;5.27;3.03;;;;;;;22.37;24.18;99289.19;4992774;28;20282;-83
2021/04/10 13:13:38;;;;;;;5.30;4.80;;;;;;;22.61;24.04;99291.66;4967188;28;20237;-85
2021/04/10 13:16:24;;;;;;;5.00;3.13;;;;;;;22.60;23.52;99287.31;4985374;28;20311;-82
2021/04/10 13:19:21;;;;;;;5.43;3.13;;;;;;;22.56;23.66;99280.03;5000741;28;20225;-82
2021/04/10 13:22:15;;;;;;;4.83;2.97;;;;;;;22.52;23.87;99271.66;4974359;28;20263;-84
2021/04/10 13:24:55;;;;;;;4.63;3.07;;;;;;;22.50;24.09;99271.16;4979658;28;20277;-85
2021/04/10 13:27:50;;;;;;;6.17;3.17;;;;;;;22.37;24.68;99261.88;4995779;28;20229;-85
2021/04/10 13:30:37;;;;;;;4.80;2.90;;;;;;;22.54;24.53;99263.97;5014411;28;20329;-85
2021/04/10 13:33:30;;;;;;;5.37;3.10;;;;;;;22.61;24.54;99256.19;4980422;28;20320;-85
2021/04/10 13:36:31;;;;;;;4.17;2.73;;;;;;;22.75;23.51;99253.44;4985109;28;20226;-85
2021/04/10 13:39:12;;;;;;;3.87;2.80;;;;;;;22.74;23.62;99240.88;5010578;28;20230;-82
2021/04/10 13:41:46;;;;;;;6.57;2.80;;;;;;;22.89;22.53;99243.28;4972796;28;20251;-86
2021/04/10 13:44:37;;;;;;;6.13;2.80;;;;;;;22.92;22.30;99244.56;4994471;28;20238;-82
2021/04/10 13:47:31;;;;;;;5.53;3.00;;;;;;;23.02;22.09;99230.66;4997646;28;20228;-84
2021/04/10 13:50:27;;;;;;;4.43;2.40;;;;;;;22.92;21.54;99242.63;4998674;28;20227;-86
2021/04/10 13:53:16;;;;;;;5.00;2.33;;;;;;;22.93;22.57;99236.06;5016782;28;20227;-82
2021/04/10 13:56:10;;;;;;;3.30;2.37;;;;;;;22.77;22.74;99226.59;4999961;28;20315;-84
2021/04/10 13:59:05;;;;;;;4.90;2.80;;;;;;;22.85;22.88;99234.09;5013979;28;20305;-87
2021/04/10 14:01:56;;;;;;;6.83;2.87;;;;;;;22.83;22.63;99231.66;5003812;28;20225;-84
2021/04/10 14:04:58;;;;;;;3.57;2.63;;;;;;;22.66;23.04;99225.22;5017462;28;20635;-85
2021/04/10 14:07:57;;;;;;;6.33;2.40;;;;;;;22.72;23.36;99221.28;5033187;28;20311;-86
2021/04/10 14:10:53;;;;;;;4.83;2.63;;;;;;;22.74;23.06;99221.78;4989792;28;20236;-85
2021/04/10 14:13:43;;;;;;;4.77;2.57;;;;;;;22.62;22.83;99226.94;5003070;28;20228;-85
2021/04/10 14:16:41;;;;;;;4.10;2.70;;;;;;;22.59;22.83;99224.81;5001298;28;20251;-84
2021/04/10 14:19:29;;;;;;;5.73;2.63;;;;;;;22.59;23.58;99213.91;4998835;28;20308;-85
2021/04/10 14:22:08;;;;;;;5.47;2.83;;;;;;;22.55;23.29;99212.91;4994112;28;20219;-84
2021/04/10 14:25:06;;;;;;;4.90;2.27;;;;;;;22.43;23.30;99212.66;5027137;28;20312;-83
2021/04/10 14:27:53;;;;;;;3.07;2.30;;;;;;;22.59;23.47;99214.72;4988132;28;20279;-83
2021/04/10 14:30:50;;;;;;;3.73;2.43;;;;;;;22.55;23.05;99223.81;4984198;28;20229;-84
2021/04/10 14:33:54;;;;;;;3.70;2.73;;;;;;;22.55;23.24;99199.25;5028605;28;20282;-83
2021/04/10 14:36:51;;;;;;;3.80;2.50;;;;;;;22.60;23.12;99215.53;5019960;28;20227;-85
2021/04/10 14:39:47;;;;;;;6.20;2.53;;;;;;;22.50;23.14;99208.38;4968711;28;20322;-83
2021/04/10 14:42:44;;;;;;;4.13;2.17;;;;;;;22.40;23.20;99203.13;5017967;28;20228;-81
2021/04/10 14:45:29;;;;;;;4.23;3.47;;;;;;;22.39;23.45;99210.53;5014906;28;20230;-84
2021/04/10 14:48:28;;;;;;;6.93;2.67;;;;;;;22.39;22.88;99190.63;5009874;28;20309;-85
2021/04/10 14:51:32;;;;;;;5.37;2.73;;;;;;;22.52;23.16;99206.16;4994021;28;20324;-82
2021/04/10 14:54:28;;;;;;;5.37;3.60;;;;;;;22.47;23.02;99205.47;4995960;28;20273;-86
2021/04/10 14:57:33;;;;;;;4.83;3.00;;;;;;;22.51;23.14;99192.81;5004874;28;20227;-85
2021/04/10 15:00:25;;;;;;;3.40;2.60;;;;;;;22.42;22.95;99208.28;4986033;28;20235;-83
2021/04/10 15:02:56;;;;;;;6.20;3.00;;;;;;;22.36;23.31;99210.31;4985608;28;20223;-85